createdAt,value
2022-11-29T00:01:11.911Z,13.25
2022-11-29T00:03:38.661Z,12.32
2022-11-29T00:06:11.484Z,12.15
2022-11-29T00:08:38.506Z,12.93
2022-11-29T00:11:07.171Z,12.85
2022-11-29T00:13:34.641Z,12.50
2022-11-29T00:16:06.475Z,12.38
2022-11-29T00:18:33.817Z,11.73
2022-11-29T00:21:00.932Z,12.50
2022-11-29T00:23:27.872Z,11.88
2022-11-29T00:25:54.829Z,12.52
2022-11-29T00:28:21.783Z,12.40
2022-11-29T00:30:48.700Z,12.13
2022-11-29T00:33:15.667Z,11.77
2022-11-29T00:35:42.923Z,11.70
2022-11-29T00:38:09.795Z,11.88
2022-11-29T00:40:36.978Z,12.25
2022-11-29T00:43:03.981Z,12.45
2022-11-29T00:45:30.931Z,12.40
2022-11-29T00:47:57.837Z,11.77
2022-11-29T00:50:24.664Z,12.50
2022-11-29T00:52:51.667Z,12.25
2022-11-29T00:55:18.632Z,12.70
2022-11-29T00:57:45.579Z,12.13
2022-11-29T01:00:13.570Z,11.63
2022-11-29T01:02:40.868Z,11.45
2022-11-29T01:05:08.592Z,11.50
2022-11-29T01:07:36.015Z,11.30
2022-11-29T01:10:03.398Z,11.93
2022-11-29T01:12:30.416Z,10.65
2022-11-29T01:14:59.076Z,11.00
2022-11-29T01:17:26.084Z,11.00
2022-11-29T01:19:53.192Z,11.35
2022-11-29T01:22:20.063Z,11.40
2022-11-29T01:24:47.293Z,10.93
2022-11-29T01:27:14.270Z,10.52
2022-11-29T01:29:41.208Z,10.40
2022-11-29T01:32:08.141Z,10.30
2022-11-29T01:34:35.160Z,10.48
2022-11-29T01:37:02.016Z,10.63
2022-11-29T01:39:29.467Z,10.68
2022-11-29T01:41:57.340Z,10.60
2022-11-29T01:45:10.789Z,10.50
2022-11-29T01:47:41.530Z,10.18
2022-11-29T01:50:09.095Z,10.43
2022-11-29T01:52:36.082Z,10.13
2022-11-29T01:55:05.125Z,10.52
2022-11-29T01:57:35.857Z,9.45
2022-11-29T02:00:09.087Z,10.15
2022-11-29T02:02:40.566Z,9.27
2022-11-29T02:05:08.494Z,9.65
2022-11-29T02:07:36.262Z,9.52
2022-11-29T02:10:04.076Z,10.18
2022-11-29T02:12:47.857Z,9.68
2022-11-29T02:15:58.044Z,10.17
2022-11-29T02:18:59.484Z,9.90
2022-11-29T02:21:29.661Z,9.35
2022-11-29T02:24:13.783Z,10.38
2022-11-29T02:27:54.588Z,10.10
2022-11-29T02:31:00.325Z,9.48
2022-11-29T02:37:19.877Z,9.75
2022-11-29T02:40:28.833Z,9.85
2022-11-29T02:43:44.551Z,10.00
2022-11-29T02:46:32.095Z,10.07
2022-11-29T02:49:14.199Z,9.80
2022-11-29T02:51:52.656Z,10.75
2022-11-29T02:54:48.431Z,10.68
2022-11-29T02:57:31.876Z,10.98
2022-11-29T03:00:14.421Z,10.70
2022-11-29T03:03:22.467Z,10.05
2022-11-29T03:06:29.271Z,10.73
2022-11-29T03:09:23.497Z,10.50
2022-11-29T03:15:30.902Z,10.40
2022-11-29T03:18:01.896Z,10.70
2022-11-29T03:20:38.308Z,10.32
2022-11-29T03:23:21.303Z,10.15
2022-11-29T03:26:21.948Z,10.32
2022-11-29T03:29:01.713Z,10.27
2022-11-29T03:31:36.070Z,11.07
2022-11-29T03:37:18.551Z,10.57
2022-11-29T03:39:52.541Z,11.43
2022-11-29T03:42:27.076Z,10.32
2022-11-29T03:45:04.841Z,9.68
2022-11-29T03:47:37.214Z,10.32
2022-11-29T03:50:08.074Z,9.77
2022-11-29T03:52:51.782Z,11.00
2022-11-29T03:55:41.679Z,10.33
2022-11-29T03:58:18.601Z,10.82
2022-11-29T04:01:03.448Z,9.85
2022-11-29T04:04:05.538Z,10.30
2022-11-29T04:06:41.557Z,10.57
2022-11-29T04:09:35.506Z,10.07
2022-11-29T04:12:35.890Z,10.35
2022-11-29T04:15:20.764Z,10.05
2022-11-29T04:18:34.214Z,10.20
2022-11-29T04:21:17.554Z,10.68
2022-11-29T04:24:12.007Z,10.77
2022-11-29T04:27:01.121Z,11.55
2022-11-29T04:29:47.184Z,11.35
2022-11-29T04:32:47.015Z,10.68
2022-11-29T04:35:55.640Z,10.68
2022-11-29T04:42:05.425Z,11.15
2022-11-29T04:45:19.012Z,10.55
2022-11-29T04:47:56.873Z,10.60
2022-11-29T04:51:21.430Z,10.77
2022-11-29T04:53:58.811Z,9.90
2022-11-29T04:56:55.704Z,10.45
2022-11-29T04:59:47.293Z,11.27
2022-11-29T05:05:54.378Z,11.00
2022-11-29T05:15:38.036Z,17.55
2022-11-29T05:18:47.727Z,15.63
2022-11-29T05:21:30.707Z,14.60
2022-11-29T05:24:38.958Z,13.13
2022-11-29T05:27:29.142Z,12.07
2022-11-29T05:30:05.690Z,12.07
2022-11-29T05:33:05.695Z,12.13
2022-11-29T05:35:55.101Z,12.25
2022-11-29T05:38:53.555Z,12.43
2022-11-29T05:41:39.371Z,12.15
2022-11-29T05:44:13.278Z,11.23
2022-11-29T05:47:02.160Z,12.35
2022-11-29T05:49:45.205Z,12.35
2022-11-29T05:52:26.162Z,12.32
2022-11-29T05:55:20.428Z,13.68
2022-11-29T05:58:01.539Z,12.85
2022-11-29T06:00:35.129Z,12.93
2022-11-29T06:03:34.238Z,13.35
2022-11-29T06:06:08.739Z,12.80
2022-11-29T06:08:58.571Z,13.00
2022-11-29T06:11:30.605Z,12.88
2022-11-29T06:14:48.426Z,13.48
2022-11-29T06:17:53.181Z,12.43
2022-11-29T06:20:58.925Z,13.35
2022-11-29T06:23:55.527Z,13.38
2022-11-29T06:26:50.052Z,13.60
2022-11-29T06:29:55.493Z,13.98
2022-11-29T06:32:37.266Z,13.18
2022-11-29T06:35:09.574Z,14.45
2022-11-29T06:37:43.352Z,14.32
2022-11-29T06:40:12.634Z,13.95
2022-11-29T06:42:39.587Z,13.95
2022-11-29T06:45:07.761Z,13.80
2022-11-29T06:47:44.247Z,13.93
2022-11-29T06:50:52.378Z,14.65
2022-11-29T06:53:56.280Z,14.32
2022-11-29T06:56:41.791Z,14.43
2022-11-29T06:59:25.881Z,15.50
2022-11-29T07:02:19.446Z,13.50
2022-11-29T07:05:04.242Z,16.42
2022-11-29T07:07:31.900Z,15.27
2022-11-29T07:09:59.880Z,16.85
2022-11-29T07:12:27.462Z,18.90
2022-11-29T07:14:55.044Z,17.23
2022-11-29T07:17:33.919Z,16.45
2022-11-29T07:20:39.469Z,16.70
2022-11-29T07:23:19.182Z,16.52
2022-11-29T07:26:32.442Z,15.75
2022-11-29T07:29:16.586Z,17.33
2022-11-29T07:31:59.236Z,16.58
2022-11-29T07:35:15.874Z,14.18
2022-11-29T07:38:32.819Z,13.60
2022-11-29T07:41:22.643Z,13.75
2022-11-29T07:44:30.725Z,13.63
2022-11-29T07:46:57.564Z,14.18
2022-11-29T07:49:24.753Z,14.23
2022-11-29T07:51:51.877Z,14.20
2022-11-29T07:54:20.190Z,15.82
2022-11-29T07:56:47.350Z,17.17
2022-11-29T07:59:14.968Z,16.75
2022-11-29T08:01:42.059Z,15.25
2022-11-29T08:04:09.879Z,15.05
2022-11-29T08:06:36.892Z,14.65
2022-11-29T08:09:04.671Z,16.52
2022-11-29T08:11:31.627Z,14.98
2022-11-29T08:14:00.354Z,15.80
2022-11-29T08:16:27.900Z,18.45
2022-11-29T08:18:55.225Z,20.08
2022-11-29T08:21:22.388Z,18.30
2022-11-29T08:23:50.140Z,22.38
2022-11-29T08:26:18.120Z,23.35
2022-11-29T08:28:45.345Z,28.95
2022-11-29T08:31:13.554Z,26.77
2022-11-29T08:33:43.106Z,27.90
2022-11-29T08:36:28.397Z,19.05
2022-11-29T08:39:03.482Z,17.25
2022-11-29T08:41:34.995Z,18.25
2022-11-29T08:44:04.770Z,16.08
2022-11-29T08:46:50.382Z,15.60
2022-11-29T08:49:17.313Z,15.98
2022-11-29T08:51:44.737Z,15.00
2022-11-29T08:54:11.824Z,15.13
2022-11-29T08:59:25.707Z,15.15
2022-11-29T09:01:52.581Z,14.65
2022-11-29T09:04:19.542Z,15.35
2022-11-29T09:06:50.008Z,14.32
2022-11-29T09:09:17.656Z,14.93
2022-11-29T09:11:48.197Z,14.90
2022-11-29T09:14:17.611Z,14.23
2022-11-29T09:16:44.666Z,15.07
2022-11-29T09:19:14.334Z,14.07
2022-11-29T09:21:42.050Z,16.65
2022-11-29T09:24:10.520Z,15.82
2022-11-29T09:26:38.377Z,15.27
2022-11-29T09:29:06.678Z,15.35
2022-11-29T09:31:35.123Z,14.80
2022-11-29T09:34:02.755Z,13.98
2022-11-29T09:36:31.079Z,14.55
2022-11-29T09:38:59.019Z,14.32
2022-11-29T09:42:05.208Z,14.93
2022-11-29T09:45:08.828Z,16.63
2022-11-29T09:48:22.251Z,15.90
2022-11-29T09:51:09.311Z,14.07
2022-11-29T09:54:19.523Z,13.82
2022-11-29T09:56:49.491Z,13.38
2022-11-29T09:59:43.900Z,14.55
2022-11-29T10:02:27.171Z,15.07
2022-11-29T10:04:57.594Z,14.30
2022-11-29T10:07:47.247Z,15.15
2022-11-29T10:10:41.077Z,13.77
2022-11-29T10:13:20.516Z,13.98
2022-11-29T10:15:52.934Z,13.88
2022-11-29T10:18:24.259Z,13.50
2022-11-29T10:20:53.394Z,14.73
2022-11-29T10:23:29.723Z,14.35
2022-11-29T10:25:57.954Z,13.00
2022-11-29T10:28:30.747Z,13.65
2022-11-29T10:31:02.913Z,14.35
2022-11-29T10:33:34.536Z,13.65
2022-11-29T10:36:06.003Z,17.67
2022-11-29T10:38:33.104Z,16.90
2022-11-29T10:41:12.235Z,14.85
2022-11-29T10:43:39.368Z,13.77
2022-11-29T10:46:11.657Z,13.15
2022-11-29T10:48:38.621Z,14.35
2022-11-29T10:51:15.810Z,13.35
2022-11-29T10:53:42.842Z,14.52
2022-11-29T10:56:17.182Z,13.88
2022-11-29T10:58:56.237Z,14.05
2022-11-29T11:01:24.299Z,14.40
2022-11-29T11:03:55.503Z,14.35
2022-11-29T11:06:27.578Z,15.13
2022-11-29T11:09:13.232Z,15.15
2022-11-29T11:11:40.305Z,14.30
2022-11-29T11:14:18.342Z,13.82
2022-11-29T11:16:45.258Z,12.80
2022-11-29T11:19:41.616Z,13.52
2022-11-29T11:22:21.138Z,12.98
2022-11-29T11:24:57.292Z,13.63
2022-11-29T11:27:36.441Z,13.18
2022-11-29T11:30:05.365Z,13.20
2022-11-29T11:32:32.448Z,14.13
2022-11-29T11:35:01.776Z,13.13
2022-11-29T11:37:36.135Z,13.07
2022-11-29T11:40:26.057Z,12.82
2022-11-29T11:42:53.015Z,12.85
2022-11-29T11:45:26.506Z,13.65
2022-11-29T11:47:56.032Z,13.02
2022-11-29T11:50:44.778Z,12.82
2022-11-29T11:53:28.028Z,12.77
2022-11-29T11:55:58.116Z,13.05
2022-11-29T11:58:28.168Z,13.27
2022-11-29T12:01:05.918Z,12.75
2022-11-29T12:03:59.992Z,12.15
2022-11-29T12:06:45.478Z,13.13
2022-11-29T12:09:27.878Z,15.90
2022-11-29T12:12:01.952Z,15.20
2022-11-29T12:14:46.988Z,15.68
2022-11-29T12:17:21.804Z,15.93
2022-11-29T12:20:09.593Z,17.10
2022-11-29T12:22:45.287Z,18.98
2022-11-29T12:25:23.044Z,19.42
2022-11-29T12:27:50.746Z,16.05
2022-11-29T12:30:19.265Z,15.75
2022-11-29T12:33:15.502Z,16.25
2022-11-29T12:36:05.027Z,16.27
2022-11-29T12:39:14.931Z,17.60
2022-11-29T12:41:53.999Z,16.48
2022-11-29T12:45:03.636Z,15.45
2022-11-29T12:47:51.507Z,15.13
2022-11-29T12:51:02.002Z,14.65
2022-11-29T12:53:56.231Z,14.40
2022-11-29T12:56:46.369Z,15.38
2022-11-29T12:59:42.330Z,15.63
2022-11-29T13:02:58.124Z,17.17
2022-11-29T13:05:51.821Z,16.30
2022-11-29T13:09:02.972Z,16.38
2022-11-29T13:11:35.461Z,17.13
2022-11-29T13:14:41.066Z,17.02
2022-11-29T13:17:01.658Z,17.05
2022-11-29T13:19:46.038Z,18.98
2022-11-29T13:23:11.570Z,17.95
2022-11-29T13:25:42.346Z,16.65
2022-11-29T13:28:22.206Z,17.10
2022-11-29T13:30:49.370Z,16.60
2022-11-29T13:33:27.806Z,16.58
2022-11-29T13:36:14.734Z,15.90
2022-11-29T13:39:05.200Z,16.67
2022-11-29T13:41:46.565Z,16.88
2022-11-29T13:44:28.076Z,17.48
2022-11-29T13:47:17.842Z,17.23
2022-11-29T13:50:39.898Z,15.75
2022-11-29T13:53:14.856Z,14.88
2022-11-29T13:56:02.775Z,15.13
2022-11-29T13:58:39.642Z,14.90
2022-11-29T14:01:14.620Z,15.60
2022-11-29T14:03:42.783Z,15.52
2022-11-29T14:06:21.917Z,15.48
2022-11-29T14:09:22.528Z,15.77
2022-11-29T14:11:59.148Z,16.08
2022-11-29T14:14:40.856Z,16.73
2022-11-29T14:17:46.809Z,16.98
2022-11-29T14:20:46.742Z,25.38
2022-11-29T14:23:17.041Z,18.13
2022-11-29T14:26:26.638Z,15.93
2022-11-29T14:28:55.584Z,15.68
2022-11-29T14:31:48.532Z,15.23
2022-11-29T14:34:21.558Z,15.40
2022-11-29T14:37:16.790Z,16.25
2022-11-29T14:39:48.845Z,16.65
2022-11-29T14:42:21.812Z,16.30
2022-11-29T14:44:53.545Z,16.48
2022-11-29T14:47:27.252Z,15.27
2022-11-29T14:49:56.187Z,15.88
2022-11-29T14:52:34.335Z,14.57
2022-11-29T14:55:05.545Z,15.40
2022-11-29T14:58:08.009Z,16.58
2022-11-29T15:00:54.746Z,20.48
2022-11-29T15:03:31.238Z,18.98
2022-11-29T15:06:00.368Z,16.60
2022-11-29T15:08:35.957Z,15.75
2022-11-29T15:11:41.627Z,16.38
2022-11-29T15:14:46.983Z,16.60
2022-11-29T15:17:26.722Z,16.63
2022-11-29T15:20:38.950Z,17.05
2022-11-29T15:23:10.486Z,17.42
2022-11-29T15:25:50.827Z,17.23
2022-11-29T15:28:26.257Z,14.68
2022-11-29T15:31:07.866Z,15.30
2022-11-29T15:33:37.801Z,15.77
2022-11-29T15:36:10.290Z,16.45
2022-11-29T15:38:59.378Z,15.73
2022-11-29T15:41:31.643Z,16.67
2022-11-29T15:44:06.549Z,21.42
2022-11-29T15:46:35.685Z,19.23
2022-11-29T15:49:16.926Z,19.40
2022-11-29T15:51:46.351Z,18.42
2022-11-29T15:54:18.346Z,18.58
2022-11-29T15:56:48.052Z,17.50
2022-11-29T15:59:37.809Z,17.38
2022-11-29T16:02:16.743Z,17.35
2022-11-29T16:04:47.186Z,16.30
2022-11-29T16:07:15.330Z,16.23
2022-11-29T16:09:51.508Z,16.48
2022-11-29T16:12:19.650Z,16.48
2022-11-29T16:14:58.213Z,17.02
2022-11-29T16:17:35.449Z,16.75
2022-11-29T16:20:23.868Z,16.15
2022-11-29T16:23:14.375Z,15.40
2022-11-29T16:26:04.352Z,16.35
2022-11-29T16:28:38.023Z,17.17
2022-11-29T16:31:05.852Z,16.45
2022-11-29T16:33:32.839Z,19.55
2022-11-29T16:36:05.145Z,20.92
2022-11-29T16:38:32.101Z,17.75
2022-11-29T16:41:22.410Z,17.70
2022-11-29T16:43:54.212Z,17.75
2022-11-29T16:46:41.392Z,22.42
2022-11-29T16:49:35.817Z,18.85
2022-11-29T16:52:04.300Z,20.05
2022-11-29T16:54:34.266Z,20.17
2022-11-29T16:57:05.681Z,19.25
2022-11-29T16:59:32.782Z,16.95
2022-11-29T17:01:59.742Z,16.65
2022-11-29T17:04:27.063Z,16.30
2022-11-29T17:06:55.555Z,16.00
2022-11-29T17:09:30.635Z,15.93
2022-11-29T17:12:01.893Z,16.63
2022-11-29T17:14:29.725Z,15.60
2022-11-29T17:16:56.888Z,15.90
2022-11-29T17:19:24.713Z,15.90
2022-11-29T17:21:53.088Z,15.50
2022-11-29T17:24:21.213Z,14.77
2022-11-29T17:26:48.133Z,15.95
2022-11-29T17:29:16.132Z,15.57
2022-11-29T17:31:44.444Z,15.70
2022-11-29T17:34:11.639Z,15.30
2022-11-29T17:36:38.648Z,15.35
2022-11-29T17:39:06.081Z,15.15
2022-11-29T17:41:33.463Z,15.73
2022-11-29T17:44:00.919Z,16.05
2022-11-29T17:46:30.593Z,15.25
2022-11-29T17:49:00.432Z,15.93
2022-11-29T17:54:14.159Z,18.75
2022-11-29T17:56:41.019Z,18.98
2022-11-29T17:59:07.915Z,17.40
2022-11-29T18:01:36.326Z,18.17
2022-11-29T18:04:05.525Z,19.20
2022-11-29T18:06:39.803Z,19.75
2022-11-29T18:11:44.847Z,19.70
2022-11-29T18:14:15.942Z,20.40
2022-11-29T18:16:45.429Z,17.55
2022-11-29T18:19:15.294Z,16.33
2022-11-29T18:21:42.566Z,16.73
2022-11-29T18:24:09.878Z,18.52
2022-11-29T18:26:37.759Z,22.63
2022-11-29T18:29:05.989Z,20.08
2022-11-29T18:31:35.215Z,19.77
2022-11-29T18:34:03.898Z,23.75
2022-11-29T18:36:36.666Z,20.50
2022-11-29T18:39:11.641Z,17.23
2022-11-29T18:41:38.634Z,19.23
2022-11-29T18:44:08.154Z,21.10
2022-11-29T18:46:37.119Z,19.80
2022-11-29T18:49:08.794Z,18.25
2022-11-29T18:51:36.784Z,17.45
2022-11-29T18:54:04.342Z,18.35
2022-11-29T18:56:33.253Z,19.98
2022-11-29T18:59:03.376Z,21.42
2022-11-29T19:01:32.466Z,19.40
2022-11-29T19:04:00.291Z,17.52
2022-11-29T19:06:37.146Z,19.90
2022-11-29T19:09:07.046Z,19.13
2022-11-29T19:11:35.127Z,22.13
2022-11-29T19:14:04.208Z,30.10
2022-11-29T19:16:32.964Z,27.65
2022-11-29T19:19:00.567Z,21.98
2022-11-29T19:21:29.919Z,23.42
2022-11-29T19:24:01.921Z,23.63
2022-11-29T19:26:30.524Z,20.38
2022-11-29T19:28:57.911Z,18.48
2022-11-29T19:31:27.189Z,19.83
2022-11-29T19:33:55.245Z,18.98
2022-11-29T19:36:24.704Z,17.33
2022-11-29T19:38:54.140Z,18.05
2022-11-29T19:41:23.883Z,18.60
2022-11-29T19:43:51.207Z,18.95
2022-11-29T19:46:24.023Z,22.45
2022-11-29T19:48:55.291Z,20.50
2022-11-29T19:51:23.144Z,20.00
2022-11-29T19:53:54.662Z,20.80
2022-11-29T19:56:22.033Z,20.65
2022-11-29T19:58:49.198Z,18.65
2022-11-29T20:01:18.458Z,18.10
2022-11-29T20:03:45.621Z,18.30
2022-11-29T20:06:13.770Z,18.65
2022-11-29T20:08:41.814Z,17.10
2022-11-29T20:11:13.525Z,16.50
2022-11-29T20:13:42.068Z,16.05
2022-11-29T20:16:11.867Z,17.15
2022-11-29T20:18:42.616Z,19.17
2022-11-29T20:21:14.715Z,24.20
2022-11-29T20:23:42.185Z,26.45
2022-11-29T20:26:17.034Z,20.55
2022-11-29T20:28:44.568Z,24.95
2022-11-29T20:31:15.201Z,21.58
2022-11-29T20:33:43.440Z,25.38
2022-11-29T20:36:48.965Z,15.93
2022-11-29T20:39:48.589Z,21.00
2022-11-29T20:43:04.084Z,20.73
2022-11-29T20:45:31.317Z,17.13
2022-11-29T20:48:11.392Z,15.52
2022-11-29T20:50:38.482Z,16.23
2022-11-29T20:53:33.035Z,16.08
2022-11-29T20:56:00.329Z,15.27
2022-11-29T20:58:27.767Z,15.82
2022-11-29T21:00:55.639Z,17.50
2022-11-29T21:03:23.500Z,17.30
2022-11-29T21:05:50.906Z,17.40
2022-11-29T21:08:21.121Z,21.52
2022-11-29T21:10:49.511Z,19.40
2022-11-29T21:13:18.092Z,18.13
2022-11-29T21:15:45.566Z,17.70
2022-11-29T21:18:24.384Z,17.45
2022-11-29T21:21:15.391Z,15.55
2022-11-29T21:24:26.524Z,16.08
2022-11-29T21:26:53.735Z,15.43
2022-11-29T21:29:23.636Z,14.73
2022-11-29T21:31:53.036Z,16.92
2022-11-29T21:34:20.843Z,16.40
2022-11-29T21:36:57.308Z,16.90
2022-11-29T21:39:27.689Z,16.70
2022-11-29T21:41:54.900Z,16.38
2022-11-29T21:44:21.689Z,17.40
2022-11-29T21:46:48.512Z,17.50
2022-11-29T21:49:15.489Z,17.63
2022-11-29T21:51:42.354Z,17.63
2022-11-29T21:54:09.132Z,17.88
2022-11-29T21:56:36.019Z,18.88
2022-11-29T21:59:03.035Z,19.67
2022-11-29T22:01:30.144Z,17.98
2022-11-29T22:03:57.010Z,18.35
2022-11-29T22:06:24.485Z,16.52
2022-11-29T22:08:51.320Z,17.02
2022-11-29T22:11:34.388Z,16.02
2022-11-29T22:14:19.959Z,16.50
2022-11-29T22:16:50.754Z,16.75
2022-11-29T22:19:19.746Z,16.40
2022-11-29T22:21:52.404Z,15.63
2022-11-29T22:24:21.191Z,16.13
2022-11-29T22:26:49.096Z,15.65
2022-11-29T22:29:16.616Z,16.15
2022-11-29T22:31:45.343Z,16.48
2022-11-29T22:34:12.238Z,15.95
2022-11-29T22:36:39.714Z,16.50
2022-11-29T22:39:07.851Z,16.02
2022-11-29T22:41:35.775Z,17.05
2022-11-29T22:44:03.302Z,16.95
2022-11-29T22:46:30.594Z,16.92
2022-11-29T22:48:58.602Z,18.02
2022-11-29T22:51:33.105Z,17.58
2022-11-29T22:54:05.683Z,17.55
2022-11-29T22:56:38.173Z,17.23
2022-11-29T22:59:05.109Z,18.33
2022-11-29T23:01:33.744Z,16.95
2022-11-29T23:04:04.093Z,18.13
2022-11-29T23:06:35.498Z,16.55
2022-11-29T23:09:12.431Z,16.33
2022-11-29T23:11:39.282Z,16.35
2022-11-29T23:14:06.170Z,17.38
2022-11-29T23:16:33.703Z,16.38
2022-11-29T23:19:01.361Z,17.08
2022-11-29T23:21:33.152Z,16.52
2022-11-29T23:24:02.862Z,17.05
2022-11-29T23:26:36.563Z,16.40
2022-11-29T23:29:08.435Z,17.02
2022-11-29T23:31:35.249Z,16.83
2022-11-29T23:34:02.590Z,16.48
2022-11-29T23:36:29.497Z,16.50
2022-11-29T23:38:56.222Z,17.33
2022-11-29T23:41:23.132Z,16.25
2022-11-29T23:43:50.042Z,16.67
2022-11-29T23:46:19.414Z,16.75
2022-11-29T23:48:46.679Z,16.20
2022-11-29T23:51:14.148Z,16.25
2022-11-29T23:53:41.457Z,16.98
2022-11-29T23:56:12.088Z,15.88
2022-11-29T23:58:39.059Z,16.88
